Wampum, Pennsylvania
Current Conditions -  °F | °C
As of 11:15 AM on Monday 22 Dec 2014 (Local Time) from KBTP Reporting Station
Overcast Overcast  
Wind Chill: 25°   Ceiling: 4600
Heat Index: 32°   Visibility: 9mi
Dew Point: 25°   Wind: 8mph
Humidity: 75%   Direction: 90°E
Pressure: 30.11"   Gusts: NA
Location:  40.89°N, 80.34°W
Report Text: KBTP 221615Z AUTO 09007KT 9SM OVC046 00/M04 A3011 RMK AO1
Loading
Personal Weather Stations






























Interactive Weather Map New forecast layout! Learn more

10-Day Weather Forecast

Advertisements
Track Severe Weather on mobile